Time;durP1;ratioP1;P1;durP2;ratioP2;P2;SDS_P1;SDS_P2;PMS_P1;PMS_P2;Temp;Humidity;BMP_temperature;BMP_pressure;BME280_temperature;BME280_humidity;BME280_pressure;Samples;Min_cycle;Max_cycle;Signal;HPM_P1;HPM_P2
2023/06/15 00:01:19;;;;;;;6.83;6.20;;;;;;;11.91;nan;99327.78;5062965;28;20203;-75
2023/06/15 00:03:46;;;;;;;7.83;7.10;;;;;;;11.81;nan;99324.88;5061140;28;20592;-75
2023/06/15 00:06:13;;;;;;;7.03;6.33;;;;;;;11.79;nan;99326.19;5056770;28;20207;-77
2023/06/15 00:08:40;;;;;;;7.53;6.83;;;;;;;11.77;nan;99322.91;5059050;28;20209;-76
2023/06/15 00:11:07;;;;;;;7.47;6.77;;;;;;;11.74;nan;99334.94;5058498;28;20229;-77
2023/06/15 00:13:34;;;;;;;7.67;6.80;;;;;;;11.70;nan;99330.25;5062224;28;20211;-77
2023/06/15 00:16:01;;;;;;;8.53;7.73;;;;;;;11.71;nan;99321.94;5062369;28;20184;-77
2023/06/15 00:18:28;;;;;;;9.23;7.93;;;;;;;11.73;nan;99314.50;5062572;28;20606;-78
2023/06/15 00:20:55;;;;;;;9.10;8.30;;;;;;;11.71;nan;99316.56;5062720;28;20218;-76
2023/06/15 00:23:26;;;;;;;8.97;8.13;;;;;;;11.70;nan;99319.50;5054242;28;20199;-77
2023/06/15 00:25:54;;;;;;;8.87;8.03;;;;;;;11.72;nan;99315.56;5061230;28;20741;-77
2023/06/15 00:28:21;;;;;;;8.97;8.07;;;;;;;11.74;nan;99312.66;5067464;28;20187;-75
2023/06/15 00:30:48;;;;;;;8.50;7.80;;;;;;;11.69;nan;99316.00;5059509;28;20187;-74
2023/06/15 00:33:14;;;;;;;8.80;8.00;;;;;;;11.67;nan;99319.97;5058250;28;20186;-75
2023/06/15 00:35:41;;;;;;;10.90;8.90;;;;;;;11.68;nan;99314.38;5059515;28;20703;-75
2023/06/15 00:38:08;;;;;;;9.30;8.47;;;;;;;11.67;nan;99319.97;5059324;28;20198;-75
2023/06/15 00:40:38;;;;;;;8.60;7.90;;;;;;;11.63;nan;99319.63;5056622;28;20201;-75
2023/06/15 00:43:05;;;;;;;9.23;8.43;;;;;;;11.61;nan;99315.53;5056363;28;20206;-76
2023/06/15 00:45:32;;;;;;;8.40;7.70;;;;;;;11.60;nan;99314.72;5051811;28;20192;-75
2023/06/15 00:48:00;;;;;;;8.90;8.10;;;;;;;11.57;nan;99319.75;5065878;28;20194;-76
2023/06/15 00:50:30;;;;;;;8.80;8.10;;;;;;;11.54;nan;99309.47;5069255;28;20203;-76
2023/06/15 00:53:03;;;;;;;8.70;7.67;;;;;;;11.51;nan;99309.94;5068899;28;20195;-75
2023/06/15 00:55:34;;;;;;;9.00;8.20;;;;;;;11.50;nan;99314.47;5061416;28;20286;-75
2023/06/15 00:58:05;;;;;;;8.63;7.83;;;;;;;11.45;nan;99320.56;5066538;28;20216;-75
2023/06/15 01:00:35;;;;;;;8.87;8.07;;;;;;;11.36;nan;99311.22;5059966;28;20229;-76
2023/06/15 01:03:04;;;;;;;8.73;7.93;;;;;;;11.34;nan;99312.47;5073042;28;20248;-76
2023/06/15 01:05:34;;;;;;;9.50;8.50;;;;;;;11.31;nan;99312.94;5066839;28;20564;-76
2023/06/15 01:08:04;;;;;;;8.47;7.73;;;;;;;11.27;nan;99304.56;5057332;28;20195;-75
2023/06/15 01:10:34;;;;;;;9.07;8.23;;;;;;;11.18;nan;99303.28;5061003;28;20369;-75
2023/06/15 01:13:02;;;;;;;10.07;7.90;;;;;;;11.13;nan;99310.38;5043140;28;20194;-75
2023/06/15 01:15:31;;;;;;;8.73;7.77;;;;;;;11.08;nan;99307.56;5049507;28;20648;-75
2023/06/15 01:17:59;;;;;;;8.20;7.50;;;;;;;11.03;nan;99310.94;5056651;28;20187;-76
2023/06/15 01:20:39;;;;;;;8.77;7.90;;;;;;;11.01;nan;99310.34;5049918;28;20207;-82
2023/06/15 01:23:19;;;;;;;8.73;7.93;;;;;;;10.97;nan;99306.47;5057257;28;20225;-76
2023/06/15 01:25:45;;;;;;;9.00;8.10;;;;;;;10.95;nan;99309.41;5055087;28;20212;-76
2023/06/15 01:28:15;;;;;;;8.40;7.50;;;;;;;10.93;nan;99313.34;5050318;28;20186;-76
2023/06/15 01:30:43;;;;;;;8.53;7.83;;;;;;;10.89;nan;99312.19;5051995;28;20210;-75
2023/06/15 01:33:10;;;;;;;8.83;7.93;;;;;;;10.82;nan;99311.47;5054210;28;20190;-75
2023/06/15 01:35:38;;;;;;;8.93;7.90;;;;;;;10.77;nan;99301.44;5052930;28;20214;-75
2023/06/15 01:38:08;;;;;;;8.00;7.30;;;;;;;10.81;nan;99301.78;5057207;28;20241;-76
2023/06/15 01:40:39;;;;;;;8.77;7.97;;;;;;;10.74;nan;99296.53;5051664;28;20198;-75
2023/06/15 01:43:07;;;;;;;7.70;7.00;;;;;;;10.69;nan;99296.38;5058943;28;20280;-75
2023/06/15 01:45:35;;;;;;;8.20;7.50;;;;;;;10.64;nan;99293.56;5056560;28;20555;-75
2023/06/15 01:48:02;;;;;;;8.27;7.57;;;;;;;10.62;nan;99306.41;5056084;28;20190;-75
2023/06/15 01:50:31;;;;;;;8.40;7.60;;;;;;;10.64;nan;99301.59;5060213;28;20197;-74
2023/06/15 01:52:58;;;;;;;11.50;9.30;;;;;;;10.53;nan;99302.41;5051471;28;20272;-75
2023/06/15 01:55:25;;;;;;;8.40;7.60;;;;;;;10.54;nan;99294.13;5051190;28;20261;-77
2023/06/15 01:57:53;;;;;;;8.73;7.60;;;;;;;10.48;nan;99294.22;5051461;28;20228;-75
2023/06/15 02:00:22;;;;;;;8.80;7.90;;;;;;;10.46;nan;99298.97;5052508;28;20199;-74
2023/06/15 02:02:49;;;;;;;10.73;8.57;;;;;;;10.44;nan;99291.19;5053990;28;20193;-76
2023/06/15 02:05:17;;;;;;;8.07;7.30;;;;;;;10.42;nan;99295.94;5051196;28;20203;-76
2023/06/15 02:07:47;;;;;;;8.30;7.60;;;;;;;10.38;nan;99289.41;5059165;28;20212;-76
2023/06/15 02:10:15;;;;;;;8.47;7.60;;;;;;;10.37;nan;99301.16;5054542;28;20280;-75
2023/06/15 02:12:42;;;;;;;8.17;7.43;;;;;;;10.43;nan;99302.13;5051149;28;20205;-76
2023/06/15 02:15:17;;;;;;;7.90;7.20;;;;;;;10.43;nan;99300.25;5052063;28;20756;-76
2023/06/15 02:17:45;;;;;;;8.30;7.60;;;;;;;10.42;nan;99297.78;5055030;28;20189;-76
2023/06/15 02:20:12;;;;;;;8.00;7.40;;;;;;;10.45;nan;99298.16;5054484;28;20684;-76
2023/06/15 02:22:39;;;;;;;9.20;7.60;;;;;;;10.39;nan;99303.63;5055467;28;20196;-77
2023/06/15 02:25:08;;;;;;;7.93;7.23;;;;;;;10.37;nan;99314.53;5051333;28;20292;-75
2023/06/15 02:27:34;;;;;;;8.17;7.47;;;;;;;10.35;nan;99315.81;5062334;28;20204;-77
2023/06/15 02:30:02;;;;;;;8.37;7.67;;;;;;;10.35;nan;99313.97;5063687;28;20207;-76
2023/06/15 02:32:34;;;;;;;8.20;7.40;;;;;;;10.28;nan;99307.88;5063698;28;20556;-77
2023/06/15 02:35:04;;;;;;;8.23;7.33;;;;;;;10.30;nan;99315.69;5043481;28;20287;-76
2023/06/15 02:37:31;;;;;;;8.23;7.43;;;;;;;10.29;nan;99311.38;5065164;28;20684;-76
2023/06/15 02:39:59;;;;;;;8.00;7.30;;;;;;;10.27;nan;99311.56;5062108;28;20189;-78
2023/06/15 02:42:25;;;;;;;8.60;7.77;;;;;;;10.19;nan;99317.25;5061441;28;20195;-75
2023/06/15 02:44:52;;;;;;;8.60;7.70;;;;;;;10.22;nan;99308.75;5053031;28;20570;-75
2023/06/15 02:47:19;;;;;;;8.57;7.77;;;;;;;10.25;nan;99312.84;5058084;28;20197;-76
2023/06/15 02:49:47;;;;;;;8.20;7.53;;;;;;;10.26;nan;99315.31;5059715;28;20205;-76
2023/06/15 02:52:13;;;;;;;7.57;6.97;;;;;;;10.27;nan;99311.56;5049835;28;20652;-76
2023/06/15 02:54:40;;;;;;;8.30;7.50;;;;;;;10.28;nan;99309.72;5048152;28;20316;-76
2023/06/15 02:57:07;;;;;;;7.43;6.73;;;;;;;10.17;nan;99303.28;5049920;28;20193;-76
2023/06/15 02:59:46;;;;;;;7.83;7.03;;;;;;;10.17;nan;99311.31;5045807;28;20549;-76
2023/06/15 03:02:20;;;;;;;7.37;6.67;;;;;;;10.25;nan;99319.03;5041224;28;20190;-76
2023/06/15 03:04:50;;;;;;;7.63;7.00;;;;;;;10.26;nan;99312.66;5050854;28;20220;-76
2023/06/15 03:07:22;;;;;;;8.03;6.87;;;;;;;10.38;nan;99320.72;5054299;28;20197;-76
2023/06/15 03:10:10;;;;;;;7.37;6.77;;;;;;;10.45;nan;99308.06;5050106;28;20631;-77
2023/06/15 03:12:40;;;;;;;7.17;6.57;;;;;;;10.47;nan;99317.50;5051563;28;20207;-76
2023/06/15 03:15:08;;;;;;;7.23;6.60;;;;;;;10.48;nan;99319.16;5052797;28;20216;-76
2023/06/15 03:17:39;;;;;;;7.40;6.70;;;;;;;10.52;nan;99323.00;5053091;28;20232;-77
2023/06/15 03:20:10;;;;;;;8.93;7.03;;;;;;;10.56;nan;99326.03;5046018;28;20209;-75
2023/06/15 03:22:39;;;;;;;6.93;6.23;;;;;;;10.49;nan;99328.81;5048543;28;20699;-76
2023/06/15 03:25:11;;;;;;;7.03;6.33;;;;;;;10.45;nan;99327.63;5045776;28;20668;-77
2023/06/15 03:27:40;;;;;;;6.93;6.30;;;;;;;10.56;nan;99339.44;5055343;28;20250;-76
2023/06/15 03:30:11;;;;;;;7.30;6.60;;;;;;;10.52;nan;99336.41;5046382;28;20194;-75
2023/06/15 03:32:40;;;;;;;7.57;6.97;;;;;;;10.60;nan;99343.28;5044853;28;20293;-76
2023/06/15 03:35:07;;;;;;;8.00;7.20;;;;;;;10.66;nan;99344.25;5045902;28;20217;-76
2023/06/15 03:37:37;;;;;;;7.43;6.70;;;;;;;10.72;nan;99346.84;5063839;28;20238;-76
2023/06/15 03:40:08;;;;;;;7.73;6.93;;;;;;;10.80;nan;99340.34;5069781;28;20195;-77
2023/06/15 03:42:35;;;;;;;7.50;6.80;;;;;;;10.83;nan;99338.03;5069768;28;20213;-76
2023/06/15 03:45:03;;;;;;;7.53;6.90;;;;;;;10.94;nan;99339.13;5069735;28;20205;-77
2023/06/15 03:47:32;;;;;;;7.90;7.13;;;;;;;11.01;nan;99342.53;5059596;28;20688;-75
2023/06/15 03:49:58;;;;;;;7.53;6.83;;;;;;;11.10;nan;99343.00;5053686;28;20194;-77
2023/06/15 03:52:26;;;;;;;7.97;7.17;;;;;;;11.16;nan;99350.94;5059158;28;20198;-75
2023/06/15 03:54:53;;;;;;;8.23;7.47;;;;;;;11.24;nan;99356.00;5057416;28;20225;-76
2023/06/15 03:57:20;;;;;;;7.73;7.03;;;;;;;11.37;nan;99354.94;5046682;28;20193;-76
2023/06/15 03:59:47;;;;;;;7.97;7.27;;;;;;;11.47;nan;99358.72;5070249;28;20255;-76
2023/06/15 04:02:14;;;;;;;7.73;7.10;;;;;;;11.57;nan;99363.47;5072004;28;20358;-76
2023/06/15 04:04:40;;;;;;;7.57;6.83;;;;;;;11.75;nan;99360.72;5068254;28;20281;-75
2023/06/15 04:07:08;;;;;;;7.50;6.80;;;;;;;12.76;nan;99362.03;5066011;28;20383;-76
2023/06/15 04:09:36;;;;;;;6.90;6.30;;;;;;;14.85;nan;99362.22;5067526;28;20577;-76
2023/06/15 04:12:03;;;;;;;7.37;6.67;;;;;;;16.64;nan;99364.13;5058784;28;20630;-77
2023/06/15 04:14:30;;;;;;;6.63;5.87;;;;;;;18.20;nan;99349.81;5060359;28;20238;-77
2023/06/15 04:16:58;;;;;;;6.47;5.83;;;;;;;19.54;nan;99352.38;5066354;28;20292;-77
2023/06/15 04:19:25;;;;;;;7.93;5.73;;;;;;;20.42;nan;99360.22;5068108;28;20192;-76
2023/06/15 04:21:54;;;;;;;5.60;5.17;;;;;;;21.12;nan;99361.19;5057436;28;20193;-77
2023/06/15 04:24:21;;;;;;;5.93;5.30;;;;;;;21.71;nan;99367.88;5061963;28;20193;-76
2023/06/15 04:26:49;;;;;;;6.37;5.87;;;;;;;22.15;nan;99357.31;5059807;28;20763;-77
2023/06/15 04:29:18;;;;;;;7.50;5.47;;;;;;;22.43;nan;99360.03;5053110;28;20209;-76
2023/06/15 04:31:46;;;;;;;5.77;5.17;;;;;;;22.70;nan;99360.03;5058899;28;20657;-76
2023/06/15 04:34:15;;;;;;;5.73;5.03;;;;;;;22.85;nan;99362.47;5033166;28;20286;-77
2023/06/15 04:36:44;;;;;;;5.33;4.83;;;;;;;22.55;nan;99363.88;5052755;28;20225;-76
2023/06/15 04:39:13;;;;;;;6.47;5.03;;;;;;;21.98;nan;99365.25;5045949;28;20672;-76
2023/06/15 04:41:40;;;;;;;5.70;5.10;;;;;;;20.66;nan;99369.16;5053839;28;20198;-76
2023/06/15 04:44:08;;;;;;;6.33;5.57;;;;;;;19.51;nan;99356.47;5052381;28;20198;-76
2023/06/15 04:46:40;;;;;;;6.43;5.83;;;;;;;18.61;nan;99364.09;5032281;28;20225;-75
2023/06/15 04:49:08;;;;;;;6.70;5.70;;;;;;;17.97;nan;99363.97;5052265;28;20186;-77
2023/06/15 04:51:38;;;;;;;6.10;5.50;;;;;;;17.60;nan;99361.56;5054889;28;20708;-76
2023/06/15 04:54:05;;;;;;;5.77;5.23;;;;;;;17.38;nan;99369.94;5048815;28;20309;-77
2023/06/15 04:56:32;;;;;;;6.13;5.60;;;;;;;17.05;nan;99360.44;5049041;28;20221;-76
2023/06/15 04:59:00;;;;;;;6.53;5.80;;;;;;;16.85;nan;99354.97;5048773;28;20212;-80
2023/06/15 05:01:27;;;;;;;6.23;5.73;;;;;;;16.79;nan;99364.16;5049648;28;20608;-76
2023/06/15 05:03:54;;;;;;;6.33;5.77;;;;;;;16.68;nan;99371.44;5053064;28;20196;-77
2023/06/15 05:06:22;;;;;;;6.70;6.10;;;;;;;16.70;nan;99371.97;5060430;28;20197;-77
2023/06/15 05:08:49;;;;;;;6.73;6.13;;;;;;;16.75;nan;99373.88;5064237;28;20233;-77
2023/06/15 05:11:16;;;;;;;6.30;5.70;;;;;;;16.80;nan;99371.19;5061400;28;20287;-76
2023/06/15 05:13:43;;;;;;;9.23;6.20;;;;;;;16.91;nan;99372.84;5063354;28;20598;-77
2023/06/15 05:16:10;;;;;;;7.30;6.60;;;;;;;17.00;nan;99378.56;5066172;28;20763;-77
2023/06/15 05:18:38;;;;;;;6.93;6.33;;;;;;;17.17;nan;99373.69;5063596;28;20321;-76
2023/06/15 05:21:05;;;;;;;6.60;6.10;;;;;;;17.34;nan;99376.19;5064782;28;20186;-76
2023/06/15 05:23:35;;;;;;;7.40;6.77;;;;;;;17.18;nan;99378.03;5061652;28;20236;-76
2023/06/15 05:26:02;;;;;;;6.93;6.33;;;;;;;17.24;nan;99379.69;5066973;28;20189;-76
2023/06/15 05:28:31;;;;;;;6.60;5.90;;;;;;;17.27;nan;99387.25;5057493;28;20206;-76
2023/06/15 05:31:00;;;;;;;7.23;6.63;;;;;;;17.38;nan;99382.69;5059093;28;20209;-76
2023/06/15 05:33:27;;;;;;;7.00;6.40;;;;;;;17.28;nan;99383.47;5051392;28;20204;-75
2023/06/15 05:35:54;;;;;;;7.43;6.53;;;;;;;17.52;nan;99386.47;5054522;28;20231;-76
2023/06/15 05:38:22;;;;;;;7.10;6.50;;;;;;;17.57;nan;99381.88;5054562;28;20201;-76
2023/06/15 05:40:48;;;;;;;7.17;6.47;;;;;;;17.47;nan;99387.28;5068243;28;20217;-76
2023/06/15 05:43:15;;;;;;;7.47;6.80;;;;;;;17.54;nan;99382.41;5056019;28;20197;-76
2023/06/15 05:45:43;;;;;;;7.63;6.80;;;;;;;17.33;nan;99386.19;5054941;28;20198;-77
2023/06/15 05:48:11;;;;;;;7.17;6.53;;;;;;;17.32;nan;99392.69;5056951;28;20585;-76
2023/06/15 05:50:38;;;;;;;7.40;6.80;;;;;;;17.55;nan;99396.75;5053805;28;20326;-77
2023/06/15 05:53:05;;;;;;;7.47;6.67;;;;;;;17.53;nan;99386.22;5055392;28;20664;-76
2023/06/15 05:55:33;;;;;;;8.00;7.23;;;;;;;17.38;nan;99388.91;5054687;28;20249;-76
2023/06/15 05:58:01;;;;;;;8.03;7.20;;;;;;;17.44;nan;99389.72;5051222;28;20598;-76
2023/06/15 06:00:30;;;;;;;8.10;7.40;;;;;;;17.75;nan;99385.97;5051213;28;20297;-76
2023/06/15 06:02:59;;;;;;;7.73;6.87;;;;;;;17.94;nan;99391.63;5052584;28;20201;-77
2023/06/15 06:05:39;;;;;;;7.77;7.07;;;;;;;18.06;nan;99391.34;5055001;28;20208;-76
2023/06/15 06:08:06;;;;;;;7.80;6.97;;;;;;;18.21;nan;99392.13;5051044;28;20194;-76
2023/06/15 06:10:33;;;;;;;7.87;7.17;;;;;;;18.28;nan;99392.66;5050270;28;20263;-77
2023/06/15 06:13:30;;;;;;;7.80;7.10;;;;;;;18.16;nan;99400.25;5041573;28;20206;-77
2023/06/15 06:15:57;;;;;;;7.30;6.60;;;;;;;18.17;nan;99398.38;5053538;28;20218;-76
2023/06/15 06:18:25;;;;;;;7.90;7.17;;;;;;;18.24;nan;99402.44;5053335;28;20666;-78
2023/06/15 06:20:52;;;;;;;8.00;7.20;;;;;;;18.26;nan;99407.56;5049060;28;20202;-76
2023/06/15 06:23:18;;;;;;;8.30;7.60;;;;;;;18.06;nan;99405.69;5055981;28;20231;-76
2023/06/15 06:25:45;;;;;;;7.50;6.87;;;;;;;17.94;nan;99403.28;5070737;28;20207;-75
2023/06/15 06:28:12;;;;;;;7.63;6.97;;;;;;;18.08;nan;99403.53;5070490;28;20292;-77
2023/06/15 06:30:39;;;;;;;7.70;7.00;;;;;;;18.58;nan;99402.59;5060912;28;20191;-77
2023/06/15 06:33:06;;;;;;;8.27;7.47;;;;;;;18.52;nan;99411.03;5045254;28;20207;-76
2023/06/15 06:35:32;;;;;;;8.17;7.47;;;;;;;18.76;nan;99409.31;5047007;28;20218;-76
2023/06/15 06:37:59;;;;;;;8.90;7.87;;;;;;;18.98;nan;99401.63;5049685;28;20571;-77
2023/06/15 06:40:26;;;;;;;8.33;7.50;;;;;;;19.12;nan;99413.50;5062125;28;20200;-77
2023/06/15 06:42:52;;;;;;;8.27;7.57;;;;;;;19.14;nan;99413.19;5047365;28;20184;-74
2023/06/15 06:45:19;;;;;;;8.30;7.57;;;;;;;19.29;nan;99418.53;5035829;28;20200;-74
2023/06/15 06:47:46;;;;;;;8.23;7.27;;;;;;;19.01;nan;99414.63;5056571;28;20200;-76
2023/06/15 06:50:13;;;;;;;8.60;7.90;;;;;;;19.27;nan;99416.09;5035719;28;20188;-76
2023/06/15 06:52:42;;;;;;;8.03;7.23;;;;;;;19.48;nan;99413.28;5034046;28;20187;-76
2023/06/15 06:55:09;;;;;;;7.87;7.20;;;;;;;19.36;nan;99408.19;5057205;28;20218;-76
2023/06/15 06:57:36;;;;;;;7.80;7.07;;;;;;;19.56;nan;99404.50;5058320;28;20203;-76
2023/06/15 07:00:04;;;;;;;8.60;7.73;;;;;;;19.74;nan;99409.25;5062040;28;20249;-77
2023/06/15 07:02:32;;;;;;;7.40;6.70;;;;;;;19.87;nan;99413.25;5060113;28;20186;-76
2023/06/15 07:04:58;;;;;;;8.10;7.50;;;;;;;19.87;nan;99413.25;5062526;28;20698;-75
2023/06/15 07:07:25;;;;;;;8.57;7.53;;;;;;;19.83;nan;99414.91;5049504;28;20190;-76
2023/06/15 07:09:52;;;;;;;8.53;7.73;;;;;;;20.02;nan;99407.66;5049806;28;20240;-76
2023/06/15 07:12:19;;;;;;;8.37;7.57;;;;;;;19.98;nan;99412.84;5051522;28;20210;-76
2023/06/15 07:14:46;;;;;;;8.17;7.57;;;;;;;19.82;nan;99411.38;5050579;28;20209;-76
2023/06/15 07:17:13;;;;;;;8.13;7.37;;;;;;;20.16;nan;99411.31;5051180;28;20224;-77
2023/06/15 07:19:39;;;;;;;8.37;7.57;;;;;;;20.24;nan;99408.00;5048496;28;20606;-76
2023/06/15 07:22:06;;;;;;;8.50;7.80;;;;;;;20.01;nan;99404.16;5051011;28;20190;-76
2023/06/15 07:24:35;;;;;;;8.67;7.93;;;;;;;19.98;nan;99399.25;5050395;28;20196;-76
2023/06/15 07:27:02;;;;;;;8.13;7.43;;;;;;;20.21;nan;99403.91;5058532;28;20189;-77
2023/06/15 07:29:29;;;;;;;8.77;8.07;;;;;;;19.64;nan;99404.72;5059682;28;20195;-81
2023/06/15 07:31:55;;;;;;;7.60;7.00;;;;;;;19.86;nan;99400.75;5056208;28;20213;-77
2023/06/15 07:34:24;;;;;;;8.63;7.93;;;;;;;20.01;nan;99400.59;5053644;28;20190;-76
2023/06/15 07:36:51;;;;;;;8.10;7.40;;;;;;;20.16;nan;99397.72;5057709;28;20224;-76
2023/06/15 07:39:18;;;;;;;7.67;6.97;;;;;;;20.50;nan;99390.31;5061848;28;20189;-76
2023/06/15 07:41:44;;;;;;;7.73;6.93;;;;;;;20.82;nan;99394.25;5074304;28;20296;-77
2023/06/15 07:44:12;;;;;;;8.93;6.50;;;;;;;21.02;nan;99392.09;5074354;28;20195;-76
2023/06/15 07:46:39;;;;;;;8.57;7.43;;;;;;;21.09;nan;99399.88;5072731;28;20199;-77
2023/06/15 07:49:07;;;;;;;8.33;7.50;;;;;;;20.87;nan;99399.66;5074259;28;20200;-76
2023/06/15 07:51:35;;;;;;;8.03;7.33;;;;;;;20.97;nan;99400.31;5064115;28;20191;-77
2023/06/15 07:54:10;;;;;;;7.83;7.13;;;;;;;20.77;nan;99399.78;5068054;28;20235;-76
2023/06/15 07:56:38;;;;;;;8.00;7.20;;;;;;;21.28;nan;99399.91;5070687;28;20219;-76
2023/06/15 07:59:05;;;;;;;8.13;7.33;;;;;;;21.15;nan;99400.66;5054373;28;20189;-75
2023/06/15 08:01:32;;;;;;;8.37;7.20;;;;;;;21.37;nan;99401.69;5068267;28;20281;-76
2023/06/15 08:03:59;;;;;;;10.03;8.23;;;;;;;21.01;nan;99397.81;5069865;28;20679;-75
2023/06/15 08:06:26;;;;;;;9.40;7.83;;;;;;;21.08;nan;99401.00;5054501;28;20200;-75
2023/06/15 08:08:53;;;;;;;8.80;7.90;;;;;;;21.53;nan;99400.34;5054216;28;20661;-76
2023/06/15 08:11:20;;;;;;;10.20;8.17;;;;;;;21.88;nan;99403.59;5053850;28;20233;-76
2023/06/15 08:13:47;;;;;;;8.80;7.95;;;;;;;22.06;nan;99400.03;5054220;28;20200;-76
2023/06/15 08:16:13;;;;;;;8.90;7.80;;;;;;;22.10;nan;99402.97;5049233;28;20220;-76
2023/06/15 08:18:41;;;;;;;11.07;8.43;;;;;;;21.65;nan;99393.63;5066382;28;20196;-76
2023/06/15 08:21:08;;;;;;;10.03;8.13;;;;;;;21.98;nan;99397.97;5063238;28;20193;-76
2023/06/15 08:23:34;;;;;;;9.57;8.68;;;;;;;21.87;nan;99394.63;5067315;28;20192;-76
2023/06/15 08:26:02;;;;;;;12.30;8.83;;;;;;;22.24;nan;99398.34;5057423;28;20192;-75
2023/06/15 08:28:29;;;;;;;10.35;9.38;;;;;;;22.09;nan;99393.97;5058599;28;20197;-76
2023/06/15 08:31:03;;;;;;;9.73;8.93;;;;;;;22.03;nan;99400.63;5057383;28;20248;-77
2023/06/15 08:33:30;;;;;;;11.95;9.38;;;;;;;22.00;nan;99394.97;5057159;28;20742;-77
2023/06/15 08:35:56;;;;;;;9.27;8.27;;;;;;;21.88;nan;99400.88;5050191;28;20206;-77
2023/06/15 08:38:23;;;;;;;11.07;9.15;;;;;;;21.46;nan;99393.66;5048120;28;20201;-75
2023/06/15 08:40:50;;;;;;;9.73;8.77;;;;;;;21.43;nan;99396.97;5050918;28;20237;-76
2023/06/15 08:43:17;;;;;;;9.15;7.60;;;;;;;21.95;nan;99399.41;5048682;28;20672;-75
2023/06/15 08:45:47;;;;;;;7.82;7.05;;;;;;;22.26;nan;99393.38;5041267;28;20201;-76
2023/06/15 08:48:16;;;;;;;7.47;6.28;;;;;;;22.65;nan;99384.69;5040925;28;20187;-76
2023/06/15 08:50:44;;;;;;;8.18;7.47;;;;;;;22.78;nan;99381.97;5044124;28;20727;-76
2023/06/15 08:53:12;;;;;;;7.85;6.32;;;;;;;22.65;nan;99384.69;5049890;28;20186;-76
2023/06/15 08:55:39;;;;;;;6.82;6.22;;;;;;;23.04;nan;99386.91;5058161;28;20217;-76
2023/06/15 08:58:07;;;;;;;10.25;6.90;;;;;;;23.17;nan;99386.88;5067911;28;20200;-76
2023/06/15 09:00:36;;;;;;;8.07;7.30;;;;;;;23.34;nan;99390.84;5059919;28;20197;-76
2023/06/15 09:03:04;;;;;;;7.55;6.90;;;;;;;23.27;nan;99392.09;5066117;28;20231;-77
2023/06/15 09:05:31;;;;;;;7.78;7.05;;;;;;;22.98;nan;99382.66;5066949;28;20552;-76
2023/06/15 09:08:00;;;;;;;7.47;6.70;;;;;;;23.44;nan;99391.44;5073434;28;20561;-76
2023/06/15 09:10:27;;;;;;;7.35;6.57;;;;;;;23.36;nan;99385.88;5071653;28;20233;-75
2023/06/15 09:12:55;;;;;;;7.53;6.75;;;;;;;23.26;nan;99389.66;5064223;28;20201;-76
2023/06/15 09:15:23;;;;;;;6.85;5.85;;;;;;;23.31;nan;99386.81;5064497;28;20188;-76
2023/06/15 09:18:00;;;;;;;5.97;5.47;;;;;;;23.65;nan;99380.84;5055031;28;20240;-76
2023/06/15 09:20:32;;;;;;;7.57;6.53;;;;;;;22.98;nan;99388.94;5049046;28;20661;-75
2023/06/15 09:23:01;;;;;;;7.43;6.82;;;;;;;22.79;nan;99380.88;5049136;28;20216;-77
2023/06/15 09:25:31;;;;;;;6.78;5.80;;;;;;;23.64;nan;99377.28;5056959;28;20255;-76
2023/06/15 09:28:00;;;;;;;6.15;5.57;;;;;;;24.59;nan;99372.28;5072064;28;20238;-77
2023/06/15 09:30:32;;;;;;;9.10;5.68;;;;;;;24.85;nan;99377.84;5067621;28;20181;-75
2023/06/15 09:33:00;;;;;;;6.47;5.88;;;;;;;23.96;nan;99368.00;5069203;28;20198;-77
2023/06/15 09:35:27;;;;;;;6.65;5.95;;;;;;;24.11;nan;99362.13;5061269;28;20204;-75
2023/06/15 09:37:55;;;;;;;6.25;5.75;;;;;;;24.10;nan;99359.69;5071899;28;20244;-77
2023/06/15 09:40:24;;;;;;;7.53;6.70;;;;;;;23.58;nan;99361.31;5056499;28;20262;-76
2023/06/15 09:42:53;;;;;;;6.88;6.20;;;;;;;23.69;nan;99363.50;5072175;28;20192;-76
2023/06/15 09:45:19;;;;;;;7.57;6.80;;;;;;;23.94;nan;99369.41;5071988;28;20668;-77
2023/06/15 09:47:53;;;;;;;7.20;6.50;;;;;;;24.16;nan;99361.22;5071187;28;20198;-76
2023/06/15 09:50:26;;;;;;;6.28;5.65;;;;;;;24.43;nan;99362.91;5072072;28;20200;-76
2023/06/15 09:52:53;;;;;;;6.60;6.03;;;;;;;24.90;nan;99356.63;5067062;28;20187;-76
2023/06/15 09:55:20;;;;;;;6.57;5.57;;;;;;;25.30;nan;99360.00;5070942;28;20216;-76
2023/06/15 09:57:47;;;;;;;6.50;5.90;;;;;;;24.95;nan;99348.25;5070570;28;20220;-76
2023/06/15 10:00:14;;;;;;;6.43;5.82;;;;;;;25.09;nan;99361.00;5071890;28;20187;-76
2023/06/15 10:02:42;;;;;;;7.45;6.07;;;;;;;25.51;nan;99353.88;5071976;28;20181;-76
2023/06/15 10:05:13;;;;;;;6.13;5.60;;;;;;;25.93;nan;99352.22;5067749;28;20201;-75
2023/06/15 10:07:45;;;;;;;6.90;6.30;;;;;;;24.90;nan;99347.59;5069796;28;20655;-77
2023/06/15 10:10:13;;;;;;;6.07;5.57;;;;;;;25.05;nan;99358.09;5065737;28;20231;-76
2023/06/15 10:12:44;;;;;;;6.53;5.88;;;;;;;24.73;nan;99342.84;5052690;28;20214;-75
2023/06/15 10:15:15;;;;;;;7.00;5.97;;;;;;;25.50;nan;99344.84;5071441;28;20196;-75
2023/06/15 10:17:46;;;;;;;5.95;5.38;;;;;;;25.70;nan;99348.88;5070360;28;20226;-76
2023/06/15 10:20:17;;;;;;;6.93;6.18;;;;;;;26.16;nan;99342.59;5064412;28;20295;-77
2023/06/15 10:23:07;;;;;;;6.05;5.55;;;;;;;26.81;nan;99338.56;5065223;28;20669;-76
2023/06/15 10:25:35;;;;;;;5.90;5.40;;;;;;;26.78;nan;99342.81;5059533;28;20666;-76
2023/06/15 10:28:09;;;;;;;6.10;5.53;;;;;;;26.28;nan;99340.78;5057330;28;20193;-76
2023/06/15 10:31:00;;;;;;;6.10;5.55;;;;;;;25.30;nan;99340.00;5071221;28;20709;-76
2023/06/15 10:33:48;;;;;;;6.10;5.60;;;;;;;25.91;nan;99341.56;5065330;28;20186;-75
2023/06/15 10:36:23;;;;;;;6.45;5.85;;;;;;;25.58;nan;99344.03;5056789;28;20312;-76
2023/06/15 10:38:58;;;;;;;7.38;6.15;;;;;;;25.95;nan;99336.22;5057936;28;20199;-76
2023/06/15 10:41:26;;;;;;;6.65;5.97;;;;;;;25.98;nan;99335.56;5056734;28;20188;-76
2023/06/15 10:44:00;;;;;;;7.25;5.95;;;;;;;26.34;nan;99333.19;5056175;28;20223;-76
2023/06/15 10:46:36;;;;;;;6.30;5.80;;;;;;;26.75;nan;99321.47;5062227;28;20189;-75
2023/06/15 10:49:07;;;;;;;6.82;6.10;;;;;;;26.87;nan;99323.53;5060815;28;20199;-76
2023/06/15 10:51:43;;;;;;;6.60;6.00;;;;;;;27.01;nan;99319.38;5056031;28;20217;-76
2023/06/15 10:54:21;;;;;;;6.40;5.70;;;;;;;26.18;nan;99318.34;5055403;28;20225;-76
2023/06/15 10:56:53;;;;;;;6.47;5.88;;;;;;;25.40;nan;99317.75;5048999;28;20248;-76
2023/06/15 10:59:54;;;;;;;6.13;5.63;;;;;;;25.08;nan;99324.53;5051367;28;20201;-76
2023/06/15 11:02:26;;;;;;;6.28;5.65;;;;;;;25.13;nan;99318.91;5051144;28;20578;-75
2023/06/15 11:05:10;;;;;;;6.80;6.00;;;;;;;25.61;nan;99312.44;5061505;28;20201;-76
2023/06/15 11:07:41;;;;;;;6.00;5.53;;;;;;;25.83;nan;99309.47;5055252;28;20668;-77
2023/06/15 11:10:21;;;;;;;6.00;5.50;;;;;;;26.08;nan;99307.75;5044390;28;20237;-77
2023/06/15 11:12:51;;;;;;;5.68;5.18;;;;;;;26.22;nan;99311.91;5060370;28;20682;-77
2023/06/15 11:15:18;;;;;;;6.07;5.47;;;;;;;26.34;nan;99304.91;5069736;28;20204;-77
2023/06/15 11:17:58;;;;;;;5.65;5.15;;;;;;;26.49;nan;99298.84;5070685;28;20704;-77
2023/06/15 11:20:37;;;;;;;5.53;5.03;;;;;;;26.43;nan;99287.25;5063653;28;20200;-77
2023/06/15 11:23:16;;;;;;;5.90;5.05;;;;;;;26.49;nan;99290.63;5056063;28;20194;-77
2023/06/15 11:25:47;;;;;;;5.13;4.60;;;;;;;26.68;nan;99293.72;5069338;28;20205;-76
2023/06/15 11:28:20;;;;;;;5.72;5.22;;;;;;;25.52;nan;99290.47;5071275;28;20200;-76
2023/06/15 11:31:02;;;;;;;5.78;5.20;;;;;;;25.08;nan;99291.66;5062641;28;20290;-77
2023/06/15 11:33:37;;;;;;;6.20;4.97;;;;;;;25.18;nan;99290.53;5066955;28;20263;-76
2023/06/15 11:36:09;;;;;;;5.70;5.20;;;;;;;25.67;nan;99283.66;5063285;28;20215;-78
2023/06/15 11:38:36;;;;;;;5.38;4.88;;;;;;;26.16;nan;99284.94;5071320;28;20216;-76
2023/06/15 11:41:05;;;;;;;5.07;4.68;;;;;;;25.74;nan;99278.50;5070903;28;20201;-77
2023/06/15 11:43:40;;;;;;;5.47;4.90;;;;;;;26.06;nan;99277.88;5070832;28;20191;-75
2023/06/15 11:46:11;;;;;;;5.22;4.72;;;;;;;26.57;nan;99278.75;5065269;28;20650;-76
2023/06/15 11:48:39;;;;;;;5.50;5.00;;;;;;;26.41;nan;99283.25;5070977;28;20201;-77
2023/06/15 11:51:08;;;;;;;5.60;5.03;;;;;;;26.34;nan;99274.69;5070898;28;20597;-76
2023/06/15 11:53:38;;;;;;;5.00;4.60;;;;;;;26.74;nan;99275.88;5069681;28;20659;-78
2023/06/15 11:56:12;;;;;;;5.18;4.68;;;;;;;27.29;nan;99269.31;5070770;28;20192;-77
2023/06/15 11:58:40;;;;;;;5.30;4.70;;;;;;;26.92;nan;99269.13;5069966;28;20189;-76